Accueil
METAR-TAF:

METAR-TAF

Aéroports :

Port-Vila, Efate, Vanuatu

Aéroport international Bauerfield

latitude: 17-42S, longitude: 168-18E, altitude: 20 m

Observation

Le bulletin a été fait il y a 43 minutes, à 13:00 UTC
Vent 2 kt de direction variable
Température 17°C
Humidité 94%
Pression 1016 hPa
Visibilité 10 km ou plus
Nuages épars à une hauteur de 2000 ft
Nuages fragmentés à une hauteur de 4000 ft

METAR: NVVV 211300Z VRB02KT 9999 SCT020 BKN040 17/16 Q1016 RMK NIL

Heure: 00:43 (13:43 UTC)

Prévision

Le bulletin a été fait il y a 3 heures et 43 minutes, à 10:00 UTC
Prévision valable du 21 à 12 UTC au 22 à 12 UTC
Vent 3 kt de direction variable
Visibilité 10 km ou plus
Nuages épars à une hauteur de 2000 ft
Probabilité 30%
entre IN et TE UTC
Visibilité: 9000 m
Nuages fragmentés à une hauteur de 1800 ft
faibles averses de pluie

TAF: NVVV 211000Z 2112/2212 VRB03KT 9999 SCT020 PROB30 INTER 2112/2118 9000 -SHRA BKN018

Observations et prévisions météorologiques de plus de 4000 aéroports (messages METAR et TAF).

Les stations disponibles sont représentées par des disques jaunes et rouges sur la carte.

Passer la souris dessus pour voir le nom de la station.

Cliquer dessus pour voir les observations et prévisions météorologiques.

Pour changer de carte: cliquez sur les boutons verts avec une croix noire pour zoomer, sur le bouton vert avec un tiret pour effectuer un zoom arrière, ou sur les flèches vertes pour les cartes adjacentes.


METAR-TAF: